createdAt,value
2016-04-02T00:00:04.704Z,0.58
2016-04-02T00:00:19.423Z,0.64
2016-04-02T00:00:33.876Z,0.58
2016-04-02T00:00:48.579Z,0.6
2016-04-02T00:01:02.099Z,0.6
2016-04-02T00:01:16.317Z,0.64
2016-04-02T00:01:30.677Z,0.61
2016-04-02T00:01:44.927Z,0.71
2016-04-02T00:02:27.507Z,0.71
2016-04-02T00:02:41.991Z,0.66
2016-04-02T00:02:56.447Z,0.66
2016-04-02T00:03:10.776Z,0.71
2016-04-02T00:03:25.135Z,0.67
2016-04-02T00:03:39.276Z,0.63
2016-04-02T00:03:53.482Z,0.69
2016-04-02T00:04:07.700Z,0.67
2016-04-02T00:04:21.966Z,0.63
2016-04-02T00:04:36.529Z,0.61
2016-04-02T00:04:50.154Z,0.66
2016-04-02T00:05:04.452Z,0.63
2016-04-02T00:05:19.140Z,0.64
2016-04-02T00:05:32.702Z,0.61
2016-04-02T00:05:47.249Z,0.63
2016-04-02T00:06:00.737Z,0.64
2016-04-02T00:06:15.096Z,0.64
2016-04-02T00:06:29.393Z,0.66
2016-04-02T00:06:43.846Z,0.66
2016-04-02T00:06:58.646Z,0.66
2016-04-02T00:07:12.912Z,0.69
2016-04-02T00:07:26.521Z,0.75
2016-04-02T00:07:40.880Z,0.74
2016-04-02T00:07:55.273Z,0.71
2016-04-02T00:08:09.570Z,0.89
2016-04-02T00:08:23.757Z,0.84
2016-04-02T00:08:38.523Z,0.82
2016-04-02T00:08:53.088Z,0.9
2016-04-02T00:09:07.667Z,0.85
2016-04-02T00:09:21.588Z,0.74
2016-04-02T00:09:35.932Z,0.78
2016-04-02T00:09:50.104Z,0.75
2016-04-02T00:10:04.872Z,0.69
2016-04-02T00:10:19.090Z,0.71
2016-04-02T00:10:33.544Z,0.66
2016-04-02T00:10:47.778Z,0.64
2016-04-02T00:11:02.110Z,0.6
2016-04-02T00:11:16.391Z,0.58
2016-04-02T00:11:30.907Z,0.61
2016-04-02T00:11:45.360Z,0.61
2016-04-02T00:11:59.721Z,0.57
2016-04-02T00:12:13.831Z,0.56
2016-04-02T00:12:28.096Z,0.6
2016-04-02T00:12:42.300Z,0.63
2016-04-02T00:12:56.662Z,0.61
2016-04-02T00:13:10.615Z,0.66
2016-04-02T00:13:24.803Z,0.63
2016-04-02T00:13:39.631Z,0.64
2016-04-02T00:13:54.181Z,0.74
2016-04-02T00:14:08.352Z,0.67
2016-04-02T00:14:22.790Z,0.66
2016-04-02T00:14:37.274Z,0.64
2016-04-02T00:14:51.727Z,0.63
2016-04-02T00:15:06.151Z,0.61
2016-04-02T00:15:20.729Z,0.63
2016-04-02T00:15:35.073Z,0.61
2016-04-02T00:16:06.498Z,0.64
2016-04-02T00:16:20.764Z,0.72
2016-04-02T00:16:33.639Z,0.75
2016-04-02T00:16:48.279Z,0.69
2016-04-02T00:17:02.657Z,0.75
2016-04-02T00:17:16.892Z,0.79
2016-04-02T00:17:31.517Z,0.72
2016-04-02T00:17:46.032Z,0.64
2016-04-02T00:17:59.347Z,0.74
2016-04-02T00:18:13.612Z,0.64
2016-04-02T00:18:28.284Z,0.64
2016-04-02T00:18:56.615Z,0.67
2016-04-02T00:19:10.897Z,0.74
2016-04-02T00:19:25.584Z,0.63
2016-04-02T00:19:40.287Z,0.72
2016-04-02T00:19:54.617Z,0.64
2016-04-02T00:20:09.524Z,0.61
2016-04-02T00:20:24.086Z,0.66
2016-04-02T00:20:38.305Z,0.75
2016-04-02T00:20:52.528Z,0.81
2016-04-02T00:21:06.918Z,0.72
2016-04-02T00:21:21.371Z,0.75
2016-04-02T00:21:35.590Z,0.67
2016-04-02T00:21:50.059Z,0.74
2016-04-02T00:22:04.264Z,0.71
2016-04-02T00:22:18.217Z,0.67
2016-04-02T00:22:32.717Z,0.61
2016-04-02T00:22:47.139Z,0.63
2016-04-02T00:23:01.564Z,0.66
2016-04-02T00:23:15.330Z,0.6
2016-04-02T00:23:29.580Z,0.61
2016-04-02T00:23:43.486Z,0.58
2016-04-02T00:23:57.958Z,0.63
2016-04-02T00:24:12.036Z,0.6
2016-04-02T00:24:26.770Z,0.64
2016-04-02T00:24:41.364Z,0.6
2016-04-02T00:24:55.725Z,0.67
2016-04-02T00:25:10.225Z,0.58
2016-04-02T00:25:24.678Z,0.57
2016-04-02T00:25:39.038Z,0.53
2016-04-02T00:25:53.525Z,0.53
2016-04-02T00:26:08.056Z,0.53
2016-04-02T00:26:22.588Z,0.52
2016-04-02T00:26:37.150Z,0.57
2016-04-02T00:26:51.666Z,0.57
2016-04-02T00:27:06.169Z,0.48
2016-04-02T00:27:20.481Z,0.52
2016-04-02T00:27:34.684Z,0.48
2016-04-02T00:27:48.981Z,0.47
2016-04-02T00:28:03.203Z,0.5
2016-04-02T00:28:17.922Z,0.48
2016-04-02T00:28:32.156Z,0.56
2016-04-02T00:28:46.390Z,0.56
2016-04-02T00:29:00.408Z,0.53
2016-04-02T00:29:14.783Z,0.5
2016-04-02T00:29:29.283Z,0.52
2016-04-02T00:29:43.533Z,0.6
2016-04-02T00:29:57.676Z,0.52
2016-04-02T00:30:11.769Z,0.56
2016-04-02T00:30:26.004Z,0.58
2016-04-02T00:30:40.348Z,0.64
2016-04-02T00:30:54.491Z,0.6
2016-04-02T00:31:08.788Z,0.57
2016-04-02T00:31:37.335Z,0.58
2016-04-02T00:31:51.476Z,0.52
2016-04-02T00:32:06.307Z,0.56
2016-04-02T00:32:19.916Z,0.52
2016-04-02T00:32:33.369Z,0.47
2016-04-02T00:33:16.293Z,0.47
2016-04-02T00:33:30.699Z,0.47
2016-04-02T00:33:45.371Z,0.48
2016-04-02T00:33:59.702Z,0.44
2016-04-02T00:34:13.952Z,0.48
2016-04-02T00:34:28.187Z,0.5
2016-04-02T00:34:42.609Z,0.53
2016-04-02T00:34:56.908Z,0.53
2016-04-02T00:35:11.054Z,0.56
2016-04-02T00:35:25.741Z,0.56
2016-04-02T00:35:40.148Z,0.56
2016-04-02T00:35:54.635Z,0.58
2016-04-02T00:36:08.994Z,0.47
2016-04-02T00:36:23.088Z,0.48
2016-04-02T00:36:37.541Z,0.48
2016-04-02T00:36:51.713Z,0.52
2016-04-02T00:37:06.090Z,0.47
2016-04-02T00:37:20.684Z,0.5
2016-04-02T00:37:34.825Z,0.47
2016-04-02T00:37:49.121Z,0.48
2016-04-02T00:38:03.640Z,0.6
2016-04-02T00:38:17.812Z,0.61
2016-04-02T00:38:32.218Z,0.58
2016-04-02T00:38:46.703Z,0.52
2016-04-02T00:39:01.190Z,0.58
2016-04-02T00:39:15.799Z,0.58
2016-04-02T00:39:30.018Z,0.66
2016-04-02T00:39:44.096Z,0.61
2016-04-02T00:39:57.473Z,0.57
2016-04-02T00:40:11.786Z,0.64
2016-04-02T00:40:26.536Z,0.69
2016-04-02T00:40:41.114Z,0.63
2016-04-02T00:40:55.540Z,0.67
2016-04-02T00:41:10.383Z,0.6
2016-04-02T00:41:24.602Z,0.6
2016-04-02T00:41:39.493Z,0.6
2016-04-02T00:41:53.760Z,0.71
2016-04-02T00:42:08.135Z,0.75
2016-04-02T00:42:22.307Z,0.79
2016-04-02T00:42:36.682Z,0.86
2016-04-02T00:42:51.073Z,0.75
2016-04-02T00:43:05.606Z,0.84
2016-04-02T00:43:19.122Z,0.82
2016-04-02T00:43:33.559Z,0.82
2016-04-02T00:43:47.887Z,0.85
2016-04-02T00:44:02.313Z,0.75
2016-04-02T00:44:16.532Z,0.72
2016-04-02T00:44:33.766Z,0.79
2016-04-02T00:44:48.204Z,0.66
2016-04-02T00:45:02.550Z,0.61
2016-04-02T00:45:17.190Z,0.69
2016-04-02T00:45:31.518Z,0.61
2016-04-02T00:45:45.706Z,0.67
2016-04-02T00:46:00.193Z,0.66
2016-04-02T00:46:14.865Z,0.61
2016-04-02T00:46:29.209Z,0.64
2016-04-02T00:46:43.912Z,0.61
2016-04-02T00:46:58.273Z,0.57
2016-04-02T00:47:26.633Z,0.6
2016-04-02T00:47:41.195Z,0.56
2016-04-02T00:47:56.042Z,0.69
2016-04-02T00:48:10.276Z,0.66
2016-04-02T00:48:24.511Z,0.66
2016-04-02T00:48:38.901Z,0.75
2016-04-02T00:48:53.076Z,0.64
2016-04-02T00:49:07.451Z,0.61
2016-04-02T00:49:21.561Z,0.64
2016-04-02T00:49:36.061Z,0.67
2016-04-02T00:49:49.670Z,0.66
2016-04-02T00:50:04.203Z,0.66
2016-04-02T00:50:18.641Z,0.63
2016-04-02T00:50:32.406Z,0.63
2016-04-02T00:50:47.094Z,0.6
2016-04-02T00:51:01.378Z,0.74
2016-04-02T00:51:15.753Z,0.63
2016-04-02T00:51:29.972Z,0.75
2016-04-02T00:51:44.472Z,0.67
2016-04-02T00:51:59.037Z,0.64
2016-04-02T00:52:13.506Z,0.64
2016-04-02T00:52:27.053Z,0.63
2016-04-02T00:52:41.319Z,0.66
2016-04-02T00:52:55.899Z,0.71
2016-04-02T00:53:10.274Z,0.66
2016-04-02T00:53:24.477Z,0.66
2016-04-02T00:53:38.914Z,0.72
2016-04-02T00:53:53.824Z,0.71
2016-04-02T00:54:08.183Z,0.64
2016-04-02T00:54:25.121Z,0.74
2016-04-02T00:54:39.355Z,0.79
2016-04-02T00:54:53.920Z,0.63
2016-04-02T00:55:08.436Z,0.58
2016-04-02T00:55:22.811Z,0.61
2016-04-02T00:55:36.452Z,0.76
2016-04-02T00:55:50.983Z,0.72
2016-04-02T00:56:05.172Z,0.76
2016-04-02T00:56:19.641Z,0.71
2016-04-02T00:56:47.938Z,0.85
2016-04-02T00:57:02.644Z,0.85
2016-04-02T00:57:17.207Z,0.72
2016-04-02T00:57:32.066Z,0.75
2016-04-02T00:57:46.332Z,0.82
2016-04-02T00:58:00.912Z,0.75
2016-04-02T00:58:14.584Z,0.74
2016-04-02T00:58:28.802Z,0.69
2016-04-02T00:58:43.318Z,0.57
2016-04-02T00:58:57.744Z,0.76
2016-04-02T00:59:12.228Z,0.64
2016-04-02T00:59:26.588Z,0.6
2016-04-02T00:59:40.978Z,0.72
2016-04-02T00:59:55.355Z,0.71
2016-04-02T01:00:09.887Z,0.71
2016-04-02T01:00:24.027Z,0.78
2016-04-02T01:00:38.355Z,0.72
2016-04-02T01:00:52.843Z,0.76
2016-04-02T01:01:07.218Z,0.74
2016-04-02T01:01:21.718Z,0.76
2016-04-02T01:01:36.171Z,0.76
2016-04-02T01:01:50.358Z,0.79
2016-04-02T01:02:04.143Z,0.79
2016-04-02T01:02:18.549Z,0.74
2016-04-02T01:02:32.924Z,0.75
2016-04-02T01:02:47.346Z,0.75
2016-04-02T01:03:01.957Z,0.75
2016-04-02T01:03:16.582Z,0.74
2016-04-02T01:03:30.973Z,0.79
2016-04-02T01:03:45.582Z,0.72
2016-04-02T01:03:59.976Z,0.85
2016-04-02T01:04:14.194Z,0.89
2016-04-02T01:04:28.648Z,0.9
2016-04-02T01:04:43.132Z,0.81
2016-04-02T01:04:57.682Z,0.89
2016-04-02T01:05:12.229Z,0.89
2016-04-02T01:05:26.541Z,0.89
2016-04-02T01:05:41.260Z,0.81
2016-04-02T01:05:55.419Z,0.86
2016-04-02T01:06:09.732Z,0.85
2016-04-02T01:06:24.357Z,0.82
2016-04-02T01:06:38.654Z,0.81
2016-04-02T01:06:53.062Z,0.75
2016-04-02T01:07:07.468Z,0.78
2016-04-02T01:07:21.827Z,0.75
